createdAt,value
2017-09-28T00:01:51.761Z,36.28
2017-09-28T00:04:19.213Z,35.95
2017-09-28T00:06:46.666Z,35.30
2017-09-28T00:09:14.110Z,35.40
2017-09-28T00:11:41.566Z,38.28
2017-09-28T00:14:09.018Z,34.63
2017-09-28T00:16:36.477Z,34.75
2017-09-28T00:19:03.941Z,34.75
2017-09-28T00:21:31.417Z,37.60
2017-09-28T00:23:58.870Z,37.67
2017-09-28T00:26:26.341Z,38.95
2017-09-28T00:28:53.794Z,36.50
2017-09-28T00:31:21.242Z,37.35
2017-09-28T00:33:48.694Z,37.65
2017-09-28T00:36:16.138Z,39.17
2017-09-28T00:38:43.591Z,37.88
2017-09-28T00:41:11.055Z,39.55
2017-09-28T00:43:38.506Z,39.30
2017-09-28T00:46:05.954Z,35.45
2017-09-28T00:48:33.418Z,37.05
2017-09-28T00:51:00.873Z,33.42
2017-09-28T00:53:28.339Z,34.42
2017-09-28T00:55:55.812Z,34.78
2017-09-28T00:58:23.263Z,34.47
2017-09-28T01:00:50.709Z,32.20
2017-09-28T01:03:18.175Z,35.15
2017-09-28T01:05:45.671Z,31.95
2017-09-28T01:08:13.945Z,33.63
2017-09-28T01:10:42.163Z,32.70
2017-09-28T01:13:09.609Z,35.55
2017-09-28T01:15:37.062Z,38.47
2017-09-28T01:18:04.522Z,33.70
2017-09-28T01:20:31.979Z,35.40
2017-09-28T01:22:59.438Z,34.22
2017-09-28T01:25:26.896Z,33.33
2017-09-28T01:27:54.360Z,32.92
2017-09-28T01:30:21.824Z,31.90
2017-09-28T01:32:49.287Z,34.30
2017-09-28T01:35:16.739Z,33.47
2017-09-28T01:37:44.189Z,33.80
2017-09-28T01:40:12.416Z,36.63
2017-09-28T01:42:39.863Z,34.58
2017-09-28T01:45:07.319Z,37.85
2017-09-28T01:47:34.766Z,34.78
2017-09-28T01:50:02.223Z,33.17
2017-09-28T01:52:29.672Z,36.42
2017-09-28T01:54:57.133Z,35.47
2017-09-28T01:57:24.590Z,34.28
2017-09-28T01:59:52.043Z,35.42
2017-09-28T02:02:19.500Z,33.80
2017-09-28T02:04:46.958Z,33.92
2017-09-28T02:07:14.417Z,33.05
2017-09-28T02:09:41.875Z,34.63
2017-09-28T02:12:09.331Z,35.80
2017-09-28T02:14:36.783Z,35.72
2017-09-28T02:17:04.266Z,37.75
2017-09-28T02:19:31.727Z,35.53
2017-09-28T02:21:59.198Z,38.05
2017-09-28T02:24:27.422Z,34.95
2017-09-28T02:26:54.885Z,37.22
2017-09-28T02:29:22.369Z,39.40
2017-09-28T02:31:49.816Z,36.28
2017-09-28T02:34:17.277Z,39.00
2017-09-28T02:36:44.743Z,35.08
2017-09-28T02:39:12.194Z,37.15
2017-09-28T02:41:39.651Z,38.13
2017-09-28T02:44:07.314Z,35.45
2017-09-28T02:46:34.762Z,38.47
2017-09-28T02:49:02.248Z,39.38
2017-09-28T02:51:29.733Z,40.25
2017-09-28T02:53:57.187Z,38.80
2017-09-28T02:56:24.854Z,37.50
2017-09-28T02:58:52.337Z,36.28
2017-09-28T03:01:19.898Z,36.13
2017-09-28T03:03:47.342Z,36.30
2017-09-28T03:06:14.796Z,36.28
2017-09-28T03:08:42.245Z,34.38
2017-09-28T03:11:09.706Z,39.60
2017-09-28T03:13:37.256Z,38.83
2017-09-28T03:16:04.833Z,38.25
2017-09-28T03:18:32.285Z,39.78
2017-09-28T03:20:59.743Z,39.28
2017-09-28T03:23:27.201Z,40.25
2017-09-28T03:25:54.697Z,40.90
2017-09-28T03:28:22.249Z,40.15
2017-09-28T03:30:49.725Z,41.95
2017-09-28T03:33:17.947Z,38.60
2017-09-28T03:35:45.430Z,39.65
2017-09-28T03:38:12.900Z,37.80
2017-09-28T03:40:40.367Z,35.97
2017-09-28T03:43:07.842Z,35.55
2017-09-28T03:45:35.298Z,41.30
2017-09-28T03:48:02.759Z,38.75
2017-09-28T03:50:30.204Z,37.05
2017-09-28T03:52:57.666Z,38.92
2017-09-28T03:55:25.129Z,37.50
2017-09-28T03:57:52.578Z,36.58
2017-09-28T04:00:20.032Z,35.63
2017-09-28T04:02:47.490Z,36.90
2017-09-28T04:05:14.954Z,38.90
2017-09-28T04:07:42.419Z,35.90
2017-09-28T04:10:09.868Z,34.00
2017-09-28T04:12:37.322Z,33.65
2017-09-28T04:15:04.775Z,36.30
2017-09-28T04:17:32.243Z,33.38
2017-09-28T04:19:59.711Z,33.55
2017-09-28T04:22:27.177Z,34.63
2017-09-28T04:24:54.650Z,35.67
2017-09-28T04:27:22.119Z,35.22
2017-09-28T04:29:49.598Z,35.40
2017-09-28T04:32:17.047Z,34.15
2017-09-28T04:34:44.533Z,32.10
2017-09-28T04:37:12.084Z,35.67
2017-09-28T04:39:39.626Z,33.05
2017-09-28T04:42:07.887Z,34.63
2017-09-28T04:44:35.362Z,31.25
2017-09-28T04:47:03.585Z,32.10
2017-09-28T04:49:31.077Z,33.65
2017-09-28T04:51:58.776Z,31.55
2017-09-28T04:54:26.243Z,32.40
2017-09-28T04:56:53.705Z,35.65
2017-09-28T04:59:21.155Z,33.95
2017-09-28T05:01:48.608Z,33.47
2017-09-28T05:04:16.333Z,35.95
2017-09-28T05:06:43.799Z,37.13
2017-09-28T05:09:11.258Z,39.65
2017-09-28T05:11:38.727Z,36.10
2017-09-28T05:14:06.945Z,38.88
2017-09-28T05:16:34.447Z,36.88
2017-09-28T05:19:02.000Z,36.38
2017-09-28T05:21:29.488Z,34.75
2017-09-28T05:23:57.007Z,37.35
2017-09-28T05:26:24.482Z,37.30
2017-09-28T05:28:52.773Z,37.90
2017-09-28T05:31:20.295Z,33.95
2017-09-28T05:33:47.776Z,35.88
2017-09-28T05:36:15.262Z,36.70
2017-09-28T05:38:42.790Z,35.97
2017-09-28T05:41:10.320Z,37.45
2017-09-28T05:43:37.806Z,31.55
2017-09-28T05:46:06.060Z,32.25
2017-09-28T05:48:33.558Z,33.95
2017-09-28T05:51:01.072Z,32.45
2017-09-28T05:53:28.558Z,32.95
2017-09-28T05:55:56.814Z,33.50
2017-09-28T05:58:24.305Z,34.33
2017-09-28T06:00:51.749Z,31.33
2017-09-28T06:03:19.296Z,34.47
2017-09-28T06:05:46.765Z,32.80
2017-09-28T06:08:14.608Z,34.25
2017-09-28T06:10:42.099Z,31.05
2017-09-28T06:13:09.587Z,30.27
2017-09-28T06:15:37.078Z,31.42
2017-09-28T06:18:04.585Z,29.52
2017-09-28T06:20:32.334Z,30.60
2017-09-28T06:22:59.793Z,30.98
2017-09-28T06:25:27.308Z,31.48
2017-09-28T06:27:54.802Z,30.52
2017-09-28T06:30:22.298Z,30.05
2017-09-28T06:32:49.779Z,31.45
2017-09-28T06:35:17.281Z,31.10
2017-09-28T06:37:44.746Z,29.10
2017-09-28T06:40:12.246Z,29.08
2017-09-28T06:42:39.745Z,28.35
2017-09-28T06:45:07.269Z,31.40
2017-09-28T06:47:34.773Z,30.80
2017-09-28T06:50:02.278Z,29.75
2017-09-28T06:52:29.753Z,31.92
2017-09-28T06:54:57.246Z,32.03
2017-09-28T06:57:24.754Z,31.77
2017-09-28T06:59:52.483Z,30.62
2017-09-28T07:02:20.237Z,32.20
2017-09-28T07:04:47.885Z,33.40
2017-09-28T07:07:15.409Z,32.38
2017-09-28T07:09:42.875Z,32.17
2017-09-28T07:12:10.334Z,36.70
2017-09-28T07:14:37.791Z,32.40
2017-09-28T07:17:05.266Z,33.90
2017-09-28T07:19:33.514Z,32.50
2017-09-28T07:22:00.976Z,30.08
2017-09-28T07:24:28.457Z,32.92
2017-09-28T07:26:56.738Z,30.83
2017-09-28T07:29:24.215Z,32.40
2017-09-28T07:31:51.668Z,35.05
2017-09-28T07:34:19.115Z,33.40
2017-09-28T07:36:46.566Z,31.90
2017-09-28T07:39:14.022Z,30.92
2017-09-28T07:41:41.491Z,36.00
2017-09-28T07:44:09.042Z,34.40
2017-09-28T07:46:36.550Z,35.28
2017-09-28T07:49:04.009Z,34.10
2017-09-28T07:51:31.479Z,33.05
2017-09-28T07:53:59.168Z,33.28
2017-09-28T07:56:26.726Z,33.58
2017-09-28T07:58:54.199Z,30.67
2017-09-28T08:01:21.658Z,27.98
2017-09-28T08:03:49.178Z,34.42
2017-09-28T08:06:16.654Z,32.97
2017-09-28T08:08:44.106Z,33.97
2017-09-28T08:11:11.620Z,33.95
2017-09-28T08:13:39.094Z,32.28
2017-09-28T08:16:06.578Z,31.23
2017-09-28T08:18:34.821Z,28.92
2017-09-28T08:21:02.315Z,33.42
2017-09-28T08:23:29.812Z,33.10
2017-09-28T08:25:57.297Z,33.60
2017-09-28T08:28:24.801Z,33.10
2017-09-28T08:30:52.298Z,34.67
2017-09-28T08:33:19.783Z,33.53
2017-09-28T08:35:48.050Z,37.13
2017-09-28T08:38:15.535Z,37.72
2017-09-28T08:40:43.062Z,35.53
2017-09-28T08:43:10.538Z,38.10
2017-09-28T08:45:38.788Z,31.92
2017-09-28T08:48:06.349Z,36.63
2017-09-28T08:50:33.855Z,33.58
2017-09-28T08:53:01.378Z,33.45
2017-09-28T08:55:28.864Z,35.45
2017-09-28T08:57:56.494Z,34.92
2017-09-28T09:00:23.980Z,33.50
2017-09-28T09:02:51.447Z,36.88
2017-09-28T09:05:18.942Z,37.07
2017-09-28T09:07:46.422Z,35.70
2017-09-28T09:10:13.906Z,35.55
2017-09-28T09:12:41.426Z,33.17
2017-09-28T09:15:08.939Z,36.25
2017-09-28T09:17:36.381Z,34.78
2017-09-28T09:20:03.932Z,33.88
2017-09-28T09:22:31.449Z,34.50
2017-09-28T09:24:58.948Z,34.15
2017-09-28T09:27:27.212Z,34.40
2017-09-28T09:29:54.682Z,33.35
2017-09-28T09:32:22.142Z,35.05
2017-09-28T09:34:49.615Z,34.33
2017-09-28T09:37:17.553Z,34.65
2017-09-28T09:39:45.021Z,37.13
2017-09-28T09:42:12.561Z,38.95
2017-09-28T09:44:40.839Z,34.78
2017-09-28T09:47:08.307Z,38.17
2017-09-28T09:49:36.594Z,36.25
2017-09-28T09:52:04.109Z,36.97
2017-09-28T09:54:31.605Z,37.67
2017-09-28T09:56:59.157Z,38.20
2017-09-28T09:59:27.421Z,38.78
2017-09-28T10:01:55.677Z,39.42
2017-09-28T10:04:23.170Z,39.03
2017-09-28T10:06:53.194Z,36.78
2017-09-28T10:09:22.081Z,38.03
2017-09-28T10:11:50.635Z,38.93
2017-09-28T10:14:19.589Z,37.90
2017-09-28T10:16:47.087Z,39.67
2017-09-28T10:19:14.575Z,39.63
2017-09-28T10:21:42.830Z,40.13
2017-09-28T10:24:10.286Z,39.13
2017-09-28T10:26:37.766Z,34.17
2017-09-28T10:29:05.271Z,36.23
2017-09-28T10:31:32.781Z,41.10
2017-09-28T10:34:00.255Z,40.47
2017-09-28T10:36:27.737Z,37.77
2017-09-28T10:38:55.257Z,38.67
2017-09-28T10:41:22.882Z,41.30
2017-09-28T10:43:50.367Z,38.00
2017-09-28T10:46:17.887Z,38.07
2017-09-28T10:48:45.378Z,37.10
2017-09-28T10:51:12.853Z,39.83
2017-09-28T10:53:40.317Z,40.20
2017-09-28T10:56:07.786Z,41.40
2017-09-28T10:58:35.270Z,41.83
2017-09-28T11:01:02.798Z,39.67
2017-09-28T11:03:30.273Z,39.95
2017-09-28T11:05:57.792Z,38.38
2017-09-28T11:08:25.357Z,41.03
2017-09-28T11:10:52.903Z,42.03
2017-09-28T11:13:20.368Z,41.35
2017-09-28T11:15:47.883Z,38.65
2017-09-28T11:18:15.366Z,39.00
2017-09-28T11:20:42.853Z,41.07
2017-09-28T11:23:10.342Z,38.60
2017-09-28T11:25:37.838Z,40.67
2017-09-28T11:28:06.091Z,38.72
2017-09-28T11:30:33.566Z,40.33
2017-09-28T11:33:01.069Z,39.92
2017-09-28T11:35:28.594Z,39.42
2017-09-28T11:37:56.825Z,38.63
2017-09-28T11:40:24.310Z,41.75
2017-09-28T11:42:51.784Z,36.78
2017-09-28T11:45:20.045Z,40.38
2017-09-28T11:47:47.506Z,39.00
2017-09-28T11:50:15.795Z,39.55
2017-09-28T11:52:43.289Z,36.63
2017-09-28T11:55:10.744Z,40.30
2017-09-28T11:57:38.274Z,38.58
2017-09-28T12:00:05.767Z,39.17
2017-09-28T12:02:33.276Z,38.25
2017-09-28T12:05:00.735Z,37.30
2017-09-28T12:07:28.997Z,36.55
2017-09-28T12:09:56.447Z,38.50
2017-09-28T12:12:23.931Z,37.40
2017-09-28T12:14:52.158Z,36.55
2017-09-28T12:17:19.639Z,41.35
2017-09-28T12:19:47.122Z,40.00
2017-09-28T12:22:15.347Z,40.08
2017-09-28T12:24:42.831Z,39.72
2017-09-28T12:27:11.071Z,34.60
2017-09-28T12:29:38.543Z,39.35
2017-09-28T12:32:06.017Z,39.22
2017-09-28T12:34:33.475Z,39.42
2017-09-28T12:37:00.947Z,39.17
2017-09-28T12:39:29.206Z,41.42
2017-09-28T12:41:56.666Z,39.25
2017-09-28T12:44:24.146Z,41.67
2017-09-28T12:46:51.621Z,42.10
2017-09-28T12:49:19.090Z,44.05
2017-09-28T12:51:46.564Z,41.85
2017-09-28T12:54:14.030Z,43.67
2017-09-28T12:56:41.497Z,42.53
2017-09-28T12:59:08.976Z,42.42
2017-09-28T13:01:37.211Z,41.05
2017-09-28T13:04:04.687Z,43.20
2017-09-28T13:06:32.151Z,42.33
2017-09-28T13:08:59.618Z,48.40
2017-09-28T13:11:27.090Z,43.85
2017-09-28T13:13:54.560Z,42.42
2017-09-28T13:16:22.026Z,40.95
2017-09-28T13:18:49.511Z,44.45
2017-09-28T13:21:16.974Z,41.45
2017-09-28T13:23:44.483Z,42.13
2017-09-28T13:26:12.722Z,46.28
2017-09-28T13:28:40.176Z,46.00
2017-09-28T13:31:07.642Z,45.60
2017-09-28T13:33:35.098Z,45.00
2017-09-28T13:36:02.554Z,46.17
2017-09-28T13:38:30.015Z,47.85
2017-09-28T13:40:57.478Z,46.90
2017-09-28T13:43:24.972Z,44.75
2017-09-28T13:45:52.435Z,44.40
2017-09-28T13:48:19.917Z,45.30
2017-09-28T13:50:47.382Z,46.85
2017-09-28T13:53:14.883Z,48.30
2017-09-28T13:55:42.323Z,47.00
2017-09-28T13:58:09.825Z,49.63
2017-09-28T14:00:37.799Z,50.50
2017-09-28T14:03:05.257Z,47.97
2017-09-28T14:05:32.747Z,47.33
2017-09-28T14:08:00.213Z,47.08
2017-09-28T14:10:28.490Z,48.17
2017-09-28T14:12:55.946Z,46.83
2017-09-28T14:15:23.412Z,49.28
2017-09-28T14:17:50.893Z,46.70
2017-09-28T14:20:18.381Z,46.65
2017-09-28T14:22:45.854Z,47.00
2017-09-28T14:25:13.333Z,49.35
2017-09-28T14:27:40.789Z,49.08
2017-09-28T14:30:08.253Z,48.25
2017-09-28T14:32:36.479Z,48.95
2017-09-28T14:35:03.958Z,47.35
2017-09-28T14:37:31.424Z,45.97
2017-09-28T14:39:58.890Z,46.30
2017-09-28T14:42:26.378Z,45.15
2017-09-28T14:44:53.858Z,44.65
2017-09-28T14:47:21.381Z,46.00
2017-09-28T14:49:49.617Z,46.63
2017-09-28T14:52:17.089Z,49.05
2017-09-28T14:54:44.571Z,46.30
2017-09-28T14:57:12.802Z,47.67
2017-09-28T14:59:40.334Z,48.90
2017-09-28T15:02:07.795Z,46.15
2017-09-28T15:04:35.251Z,46.45
2017-09-28T15:07:02.709Z,48.13
2017-09-28T15:09:30.185Z,51.75
2017-09-28T15:11:57.661Z,47.65
2017-09-28T15:14:25.151Z,48.38
2017-09-28T15:16:52.658Z,47.42
2017-09-28T15:19:20.119Z,48.28
2017-09-28T15:21:47.599Z,44.85
2017-09-28T15:24:15.081Z,48.20
2017-09-28T15:26:42.546Z,49.33
2017-09-28T15:29:10.023Z,49.58
2017-09-28T15:31:37.518Z,52.08
2017-09-28T15:34:05.014Z,46.15
2017-09-28T15:36:32.430Z,51.08
2017-09-28T15:38:59.952Z,48.90
2017-09-28T15:41:27.431Z,48.35
2017-09-28T15:43:54.894Z,48.08
2017-09-28T15:46:22.366Z,47.78
2017-09-28T15:48:49.851Z,48.78
2017-09-28T15:51:18.086Z,48.13
2017-09-28T15:53:45.561Z,47.05
2017-09-28T15:56:13.033Z,47.25
2017-09-28T15:58:41.274Z,47.53
2017-09-28T16:01:08.730Z,48.95
2017-09-28T16:03:36.210Z,48.35
2017-09-28T16:06:03.688Z,50.67
2017-09-28T16:08:31.928Z,50.12
2017-09-28T16:10:59.396Z,51.70
2017-09-28T16:13:26.849Z,48.15
2017-09-28T16:15:54.325Z,53.22
2017-09-28T16:18:22.589Z,49.70
2017-09-28T16:20:50.081Z,52.38
2017-09-28T16:23:17.600Z,46.13
2017-09-28T16:25:45.096Z,52.83
2017-09-28T16:28:12.626Z,50.85
2017-09-28T16:33:07.915Z,50.15
2017-09-28T16:35:35.402Z,53.58
2017-09-28T16:38:08.217Z,52.30
2017-09-28T16:40:35.973Z,49.88
2017-09-28T16:43:03.608Z,49.90
2017-09-28T16:45:31.069Z,51.88
2017-09-28T16:47:58.563Z,52.28
2017-09-28T16:50:26.065Z,51.40
2017-09-28T16:52:53.547Z,51.50
2017-09-28T16:55:22.131Z,53.28
2017-09-28T16:57:49.689Z,54.50
2017-09-28T17:00:17.175Z,53.03
2017-09-28T17:02:44.677Z,51.58
2017-09-28T17:05:12.184Z,54.88
2017-09-28T17:07:39.734Z,57.35
2017-09-28T17:10:07.868Z,58.58
2017-09-28T17:12:35.326Z,53.87
2017-09-28T17:15:02.813Z,54.65
2017-09-28T17:17:30.286Z,56.78
2017-09-28T17:19:57.774Z,56.80
2017-09-28T17:22:25.231Z,57.40
2017-09-28T17:24:52.708Z,53.15
2017-09-28T17:27:20.188Z,56.92
2017-09-28T17:29:47.682Z,55.53
2017-09-28T17:32:15.135Z,58.60
2017-09-28T17:34:42.589Z,56.30
2017-09-28T17:37:10.074Z,57.65
2017-09-28T17:39:37.551Z,57.60
2017-09-28T17:42:05.014Z,59.15
2017-09-28T17:44:32.495Z,59.63
2017-09-28T17:47:00.830Z,59.63
2017-09-28T17:49:28.531Z,61.13
2017-09-28T17:51:56.018Z,55.90
2017-09-28T17:54:23.563Z,56.22
2017-09-28T17:56:51.077Z,56.72
2017-09-28T17:59:18.521Z,56.78
2017-09-28T18:01:46.019Z,58.28
2017-09-28T18:04:13.489Z,56.78
2017-09-28T18:06:41.078Z,58.72
2017-09-28T18:09:08.559Z,57.30
2017-09-28T18:11:36.069Z,57.85
2017-09-28T18:14:03.630Z,57.85
2017-09-28T18:16:31.132Z,58.72
2017-09-28T18:18:58.704Z,59.88
2017-09-28T18:21:26.204Z,56.95
2017-09-28T18:23:53.836Z,61.63
2017-09-28T18:26:21.321Z,61.25
2017-09-28T18:28:48.823Z,60.67
2017-09-28T18:31:16.311Z,58.38
2017-09-28T18:33:44.070Z,56.92
2017-09-28T18:36:11.560Z,60.97
2017-09-28T18:38:39.011Z,60.15
2017-09-28T18:41:07.194Z,59.20
2017-09-28T18:43:34.954Z,59.28
2017-09-28T18:46:03.129Z,59.08
2017-09-28T18:48:30.594Z,61.22
2017-09-28T18:50:58.082Z,58.53
2017-09-28T18:53:25.580Z,62.15
2017-09-28T18:55:53.047Z,56.67
2017-09-28T18:58:20.597Z,60.17
2017-09-28T19:00:48.914Z,61.30
2017-09-28T19:03:16.359Z,58.90
2017-09-28T19:05:43.850Z,61.95
2017-09-28T19:08:11.310Z,63.20
2017-09-28T19:10:38.795Z,63.80
2017-09-28T19:13:06.270Z,68.32
2017-09-28T19:15:33.776Z,63.38
2017-09-28T19:18:01.268Z,61.50
2017-09-28T19:20:28.738Z,63.95
2017-09-28T19:22:56.355Z,64.87
2017-09-28T19:25:23.852Z,64.35
2017-09-28T19:27:52.211Z,62.08
2017-09-28T19:30:19.699Z,57.42
2017-09-28T19:32:47.366Z,68.53
2017-09-28T19:35:14.873Z,59.22
2017-09-28T19:37:42.396Z,62.67
2017-09-28T19:40:09.955Z,60.88
2017-09-28T19:42:37.462Z,66.95
2017-09-28T19:45:04.959Z,61.17
2017-09-28T19:47:32.905Z,59.53
2017-09-28T19:50:01.223Z,61.25
2017-09-28T19:52:28.762Z,61.85
2017-09-28T19:54:56.232Z,59.47
2017-09-28T19:57:23.763Z,61.75
2017-09-28T19:59:51.276Z,59.03
2017-09-28T20:02:18.773Z,60.92
2017-09-28T20:04:46.305Z,62.17
2017-09-28T20:07:13.874Z,62.15
2017-09-28T20:09:41.563Z,62.00
2017-09-28T20:12:09.234Z,60.10
2017-09-28T20:14:36.784Z,65.00
2017-09-28T20:17:05.888Z,66.35
2017-09-28T20:19:33.535Z,60.30
2017-09-28T20:22:01.838Z,66.53
2017-09-28T20:24:29.439Z,60.72
2017-09-28T20:26:56.948Z,64.28
2017-09-28T20:29:24.804Z,70.00
2017-09-28T20:31:52.733Z,67.40
2017-09-28T20:34:20.236Z,68.65
2017-09-28T20:36:47.814Z,68.95
2017-09-28T20:39:15.320Z,65.35
2017-09-28T20:41:42.879Z,73.68
2017-09-28T20:44:10.553Z,70.07
2017-09-28T20:46:38.225Z,67.82
2017-09-28T20:49:05.749Z,68.57
2017-09-28T20:51:33.255Z,72.53
2017-09-28T20:54:00.821Z,68.57
2017-09-28T20:56:28.388Z,69.55
2017-09-28T20:58:55.878Z,69.00
2017-09-28T21:01:23.448Z,69.65
2017-09-28T21:03:51.191Z,72.28
2017-09-28T21:06:18.654Z,73.00
2017-09-28T21:08:46.173Z,69.70
2017-09-28T21:11:14.434Z,71.62
2017-09-28T21:13:41.951Z,70.53
2017-09-28T21:16:09.473Z,72.28
2017-09-28T21:18:37.005Z,67.62
2017-09-28T21:21:04.584Z,68.22
2017-09-28T21:23:32.319Z,71.43
2017-09-28T21:26:00.016Z,66.05
2017-09-28T21:28:27.553Z,65.93
2017-09-28T21:30:56.002Z,68.12
2017-09-28T21:33:24.994Z,63.17
2017-09-28T21:35:53.261Z,65.15
2017-09-28T21:38:20.776Z,60.63
2017-09-28T21:40:48.292Z,65.93
2017-09-28T21:43:15.800Z,66.25
2017-09-28T21:45:43.338Z,60.75
2017-09-28T21:48:10.840Z,63.00
2017-09-28T21:50:38.306Z,59.33
2017-09-28T21:53:05.804Z,56.65
2017-09-28T21:55:33.575Z,58.40
2017-09-28T21:58:01.470Z,52.97
2017-09-28T22:00:28.977Z,52.67
2017-09-28T22:02:56.470Z,51.15
2017-09-28T22:05:23.978Z,55.85
2017-09-28T22:07:51.471Z,53.35
2017-09-28T22:10:18.996Z,55.88
2017-09-28T22:12:46.491Z,52.55
2017-09-28T22:15:13.966Z,52.95
2017-09-28T22:17:41.454Z,50.92
2017-09-28T22:20:08.956Z,54.58
2017-09-28T22:22:36.448Z,48.38
2017-09-28T22:25:03.962Z,52.80
2017-09-28T22:27:31.442Z,51.10
2017-09-28T22:29:58.906Z,49.30
2017-09-28T22:32:26.359Z,52.55
2017-09-28T22:34:53.822Z,50.70
2017-09-28T22:37:21.319Z,50.60
2017-09-28T22:39:48.805Z,50.67
2017-09-28T22:42:16.263Z,50.28
2017-09-28T22:44:44.495Z,47.72
2017-09-28T22:47:12.019Z,45.63
2017-09-28T22:49:39.479Z,44.50
2017-09-28T22:52:06.940Z,46.83
2017-09-28T22:54:34.461Z,46.83
2017-09-28T22:57:01.942Z,43.55
2017-09-28T22:59:29.470Z,44.15
2017-09-28T23:01:56.948Z,49.20
2017-09-28T23:04:24.421Z,45.30
2017-09-28T23:06:51.887Z,44.33
2017-09-28T23:09:19.397Z,46.47
2017-09-28T23:11:46.877Z,45.08
2017-09-28T23:14:15.147Z,47.35
2017-09-28T23:16:42.638Z,45.88
2017-09-28T23:19:10.111Z,44.00
2017-09-28T23:21:37.556Z,48.90
2017-09-28T23:24:05.005Z,46.70
2017-09-28T23:26:32.475Z,47.60
2017-09-28T23:28:59.941Z,43.70
2017-09-28T23:31:27.415Z,48.67
2017-09-28T23:33:54.880Z,43.28
2017-09-28T23:36:22.340Z,45.47
2017-09-28T23:38:49.797Z,46.55
2017-09-28T23:41:17.242Z,43.13
2017-09-28T23:43:44.703Z,45.28
2017-09-28T23:46:12.163Z,44.15
2017-09-28T23:48:39.615Z,42.97
2017-09-28T23:51:07.067Z,45.03
2017-09-28T23:53:34.521Z,45.70
2017-09-28T23:56:01.978Z,48.25
2017-09-28T23:58:29.450Z,46.05
